Time;durP1;ratioP1;P1;durP2;ratioP2;P2;SDS_P1;SDS_P2;PMS_P1;PMS_P2;Temp;Humidity;BMP_temperature;BMP_pressure;BME280_temperature;BME280_humidity;BME280_pressure;Samples;Min_cycle;Max_cycle;Signal;HPM_P1;HPM_P2
2022/09/24 00:01:14;;;;;;;4.82;3.25;;;13.60;99.90;;;;;;4995600;28;20026;-74
2022/09/24 00:03:44;;;;;;;4.90;3.58;;;13.60;99.90;;;;;;4994878;28;20038;-78
2022/09/24 00:06:13;;;;;;;4.15;3.22;;;13.50;99.90;;;;;;4995240;28;20030;-74
2022/09/24 00:08:39;;;;;;;5.40;3.60;;;13.60;99.90;;;;;;4995073;28;20530;-73
2022/09/24 00:11:05;;;;;;;5.63;3.67;;;13.50;99.90;;;;;;4996448;28;20105;-74
2022/09/24 00:13:32;;;;;;;5.22;3.35;;;13.50;99.90;;;;;;4978804;28;20033;-74
2022/09/24 00:16:02;;;;;;;6.65;3.53;;;13.50;99.90;;;;;;4994379;28;20049;-74
2022/09/24 00:18:29;;;;;;;7.55;3.28;;;13.50;99.90;;;;;;4995972;28;20117;-74
2022/09/24 00:20:55;;;;;;;6.93;3.83;;;13.60;99.90;;;;;;4994405;28;20103;-75
2022/09/24 00:23:20;;;;;;;6.10;3.67;;;13.60;99.90;;;;;;4995063;28;20026;-73
2022/09/24 00:28:32;;;;;;;6.15;3.70;;;13.60;99.90;;;;;;4996062;28;20138;-73
2022/09/24 00:30:59;;;;;;;6.05;3.60;;;13.50;99.90;;;;;;4994213;28;20030;-73
2022/09/24 00:33:27;;;;;;;8.43;3.42;;;13.50;99.90;;;;;;4996207;28;20073;-73
2022/09/24 00:35:56;;;;;;;9.02;3.50;;;13.40;99.90;;;;;;4995501;28;20024;-73
2022/09/24 00:38:23;;;;;;;8.68;4.05;;;13.30;99.90;;;;;;4995725;28;20035;-74
2022/09/24 00:40:49;;;;;;;7.53;3.92;;;13.30;99.90;;;;;;4995441;28;20031;-74
2022/09/24 00:43:41;;;;;;;5.85;3.35;;;13.30;99.90;;;;;;4994638;28;20022;-73
2022/09/24 00:46:15;;;;;;;6.18;3.83;;;13.30;99.90;;;;;;4975846;28;20039;-73
2022/09/24 00:48:42;;;;;;;6.03;3.58;;;13.30;99.90;;;;;;4978081;28;20137;-73
2022/09/24 00:51:12;;;;;;;8.10;4.07;;;13.30;99.90;;;;;;4994528;28;20026;-73
2022/09/24 00:53:39;;;;;;;5.93;3.67;;;13.30;99.90;;;;;;4995784;28;20026;-73
2022/09/24 00:56:08;;;;;;;5.93;3.45;;;13.40;99.90;;;;;;4993496;28;20049;-73
2022/09/24 00:58:34;;;;;;;5.43;3.83;;;13.40;99.90;;;;;;4995176;28;20325;-74
2022/09/24 01:01:06;;;;;;;6.15;4.07;;;13.40;99.90;;;;;;4995015;28;20526;-73
2022/09/24 01:03:32;;;;;;;;;;;13.40;99.90;;;;;;4994653;28;20036;-73
2022/09/24 01:05:58;;;;;;;6.68;3.83;;;13.30;99.90;;;;;;4977297;28;20248;-73
2022/09/24 01:08:24;;;;;;;7.25;3.45;;;13.30;99.90;;;;;;4994158;28;20306;-73
2022/09/24 01:11:05;;;;;;;4.97;3.58;;;13.20;99.90;;;;;;4994830;28;20551;-73
2022/09/24 01:13:50;;;;;;;4.90;3.43;;;13.20;99.90;;;;;;4977922;28;20411;-73
2022/09/24 01:16:35;;;;;;;5.25;3.30;;;13.10;99.90;;;;;;4977531;28;20121;-73
2022/09/24 01:19:37;;;;;;;5.93;4.40;;;13.00;99.90;;;;;;4993349;28;20403;-73
2022/09/24 01:22:12;;;;;;;3.55;3.20;;;13.00;99.90;;;;;;4993218;28;20108;-73
2022/09/24 01:25:06;;;;;;;5.40;3.25;;;13.10;99.90;;;;;;4995054;28;20105;-73
2022/09/24 01:27:32;;;;;;;8.32;4.05;;;13.00;99.90;;;;;;4993423;28;20026;-73
2022/09/24 01:30:14;;;;;;;6.72;3.63;;;13.00;99.90;;;;;;4976955;28;20170;-73
2022/09/24 01:32:45;;;;;;;;;;;12.90;99.90;;;;;;4995259;28;20112;-73
2022/09/24 01:35:14;;;;;;;5.47;3.45;;;12.90;99.90;;;;;;4977358;28;19921;-74
2022/09/24 01:37:44;;;;;;;5.13;3.67;;;12.90;99.90;;;;;;4977329;28;20121;-73
2022/09/24 01:40:11;;;;;;;10.15;4.28;;;12.90;99.90;;;;;;4994595;28;20035;-73
2022/09/24 01:42:41;;;;;;;8.27;4.13;;;12.90;99.90;;;;;;4993419;28;20164;-73
2022/09/24 01:45:08;;;;;;;6.68;3.63;;;12.90;99.90;;;;;;4994062;28;20041;-73
2022/09/24 01:47:38;;;;;;;5.45;3.95;;;12.90;99.90;;;;;;4993122;28;20104;-73
2022/09/24 01:50:08;;;;;;;6.38;3.47;;;12.90;99.90;;;;;;4994372;28;20177;-73
2022/09/24 01:52:41;;;;;;;6.40;3.83;;;12.90;99.90;;;;;;4993394;28;20471;-73
2022/09/24 01:55:12;;;;;;;6.03;3.72;;;12.80;99.90;;;;;;4992817;28;20071;-73
2022/09/24 01:57:44;;;;;;;5.70;4.00;;;12.80;99.90;;;;;;4993119;28;20038;-73
2022/09/24 02:00:16;;;;;;;4.68;3.50;;;12.80;99.90;;;;;;4992316;28;20038;-73
2022/09/24 02:02:48;;;;;;;7.78;3.75;;;12.80;99.90;;;;;;4992947;28;20026;-73
2022/09/24 02:05:24;;;;;;;8.63;3.60;;;12.80;99.90;;;;;;4993969;28;20030;-73
2022/09/24 02:07:56;;;;;;;4.95;3.75;;;12.70;99.90;;;;;;4975777;28;20054;-74
2022/09/24 02:10:21;;;;;;;6.07;4.05;;;12.70;99.90;;;;;;4976869;28;20117;-73
2022/09/24 02:12:57;;;;;;;6.53;3.83;;;12.70;99.90;;;;;;4993616;28;20118;-77
2022/09/24 02:15:31;;;;;;;6.20;3.95;;;12.60;99.90;;;;;;4993024;28;20163;-73
2022/09/24 02:18:01;;;;;;;6.82;4.03;;;12.60;99.90;;;;;;4992147;28;20105;-73
2022/09/24 02:20:29;;;;;;;10.02;4.50;;;12.60;99.90;;;;;;4992717;28;20037;-74
2022/09/24 02:22:56;;;;;;;6.78;3.60;;;12.60;99.90;;;;;;4992054;28;20026;-72
2022/09/24 02:25:38;;;;;;;5.10;3.80;;;12.60;99.90;;;;;;4992316;28;20050;-73
2022/09/24 02:28:03;;;;;;;5.25;3.72;;;12.50;99.90;;;;;;4993331;28;20138;-75
2022/09/24 02:30:41;;;;;;;7.05;3.60;;;12.60;99.90;;;;;;4993800;28;20113;-73
2022/09/24 02:34:19;;;;;;;5.70;4.18;;;12.60;99.90;;;;;;4993236;28;20034;-73
2022/09/24 02:35:57;;;;;;;6.72;4.20;;;12.70;99.90;;;;;;4993099;28;20030;-73
2022/09/24 02:38:22;;;;;;;5.85;3.47;;;12.70;99.90;;;;;;4993618;28;20349;-73
2022/09/24 02:40:49;;;;;;;6.22;4.45;;;12.70;99.90;;;;;;4992557;28;20030;-73
2022/09/24 02:43:15;;;;;;;8.98;3.88;;;12.60;99.90;;;;;;4993431;28;20105;-73
2022/09/24 02:45:40;;;;;;;7.38;3.70;;;12.60;99.90;;;;;;4992168;28;20565;-72
2022/09/24 02:48:06;;;;;;;7.80;4.47;;;12.50;99.90;;;;;;4991575;28;20054;-72
2022/09/24 02:50:32;;;;;;;6.50;3.90;;;12.50;99.90;;;;;;4992151;28;20084;-72
2022/09/24 02:52:57;;;;;;;5.47;4.00;;;12.30;99.90;;;;;;4991773;28;20034;-73
2022/09/24 02:55:23;;;;;;;6.28;4.03;;;12.40;99.90;;;;;;4992367;28;20031;-73
2022/09/24 02:57:49;;;;;;;5.05;3.72;;;12.30;99.90;;;;;;4992192;28;20034;-72
2022/09/24 03:00:16;;;;;;;5.57;3.47;;;12.30;99.90;;;;;;4991925;28;20034;-73
2022/09/24 03:02:42;;;;;;;5.65;3.70;;;12.30;99.90;;;;;;4959909;28;20034;-73
2022/09/24 03:05:08;;;;;;;6.32;3.80;;;12.30;99.90;;;;;;4991686;28;20085;-73
2022/09/24 03:07:33;;;;;;;7.30;4.05;;;12.30;99.90;;;;;;4992162;28;20502;-73
2022/09/24 03:09:59;;;;;;;5.38;4.13;;;12.40;99.90;;;;;;4992668;28;20376;-73
2022/09/24 03:12:25;;;;;;;5.70;3.60;;;12.40;99.90;;;;;;4991896;28;20062;-72
2022/09/24 03:14:50;;;;;;;7.28;3.60;;;12.40;99.90;;;;;;4991983;28;20031;-73
2022/09/24 03:17:16;;;;;;;4.78;3.50;;;12.40;99.90;;;;;;4991529;28;20101;-73
2022/09/24 03:19:42;;;;;;;6.00;3.30;;;12.30;99.90;;;;;;4991542;28;20034;-73
2022/09/24 03:22:07;;;;;;;6.78;3.80;;;12.30;99.90;;;;;;4991443;28;20066;-73
2022/09/24 03:24:33;;;;;;;5.22;4.10;;;12.30;99.90;;;;;;4992099;28;20464;-73
2022/09/24 03:26:58;;;;;;;6.55;3.60;;;12.30;99.90;;;;;;4992738;28;20033;-73
2022/09/24 03:32:08;;;;;;;6.55;3.80;;;12.30;99.90;;;;;;4992675;28;20049;-72
2022/09/24 03:34:33;;;;;;;6.75;4.00;;;12.30;99.90;;;;;;4992862;28;20035;-73
2022/09/24 03:36:59;;;;;;;8.10;3.60;;;12.20;99.90;;;;;;4991351;28;20027;-73
2022/09/24 03:39:24;;;;;;;5.50;3.30;;;12.20;99.90;;;;;;4991644;28;20052;-73
2022/09/24 03:41:50;;;;;;;5.55;3.75;;;12.20;99.90;;;;;;4992736;28;20030;-73
2022/09/24 03:44:16;;;;;;;5.18;3.78;;;12.20;99.90;;;;;;4991286;28;20471;-73
2022/09/24 03:46:42;;;;;;;5.70;4.15;;;12.20;99.90;;;;;;4991626;28;20046;-73
2022/09/24 03:49:08;;;;;;;5.47;3.50;;;12.20;99.90;;;;;;4990795;28;20055;-72
2022/09/24 03:51:34;;;;;;;6.63;3.60;;;12.20;99.90;;;;;;4991705;28;20030;-73
2022/09/24 03:53:59;;;;;;;6.55;3.97;;;12.20;99.90;;;;;;4991051;28;20031;-73
2022/09/24 03:56:25;;;;;;;6.25;4.20;;;12.20;99.90;;;;;;4991400;28;20033;-73
2022/09/24 03:58:50;;;;;;;5.68;3.88;;;12.10;99.90;;;;;;4991450;28;20035;-72
2022/09/24 04:01:19;;;;;;;5.65;3.88;;;12.10;99.90;;;;;;4990861;28;20452;-72
2022/09/24 04:03:44;;;;;;;4.32;3.70;;;12.00;99.90;;;;;;4991439;28;20037;-73
2022/09/24 04:06:10;;;;;;;9.35;4.35;;;12.00;99.90;;;;;;4990528;28;20391;-73
2022/09/24 04:08:36;;;;;;;7.57;3.95;;;11.90;99.90;;;;;;4992685;28;20072;-73
2022/09/24 04:11:01;;;;;;;6.57;3.97;;;11.90;99.90;;;;;;4991053;28;20030;-73
2022/09/24 04:13:27;;;;;;;8.80;4.65;;;11.80;99.90;;;;;;4991412;28;20035;-73
2022/09/24 04:15:53;;;;;;;8.40;5.47;;;11.80;99.90;;;;;;4992750;28;20038;-73
2022/09/24 04:18:19;;;;;;;8.68;4.05;;;11.90;99.90;;;;;;4990823;28;20046;-73
2022/09/24 04:20:45;;;;;;;5.90;3.70;;;11.90;99.90;;;;;;4992436;28;20511;-73
2022/09/24 04:23:12;;;;;;;9.18;4.22;;;11.90;99.90;;;;;;4990989;28;20023;-73
2022/09/24 04:25:39;;;;;;;8.25;4.15;;;12.00;99.90;;;;;;4991561;28;20027;-73
2022/09/24 04:28:06;;;;;;;6.43;4.20;;;12.10;99.90;;;;;;4992177;28;20038;-73
2022/09/24 04:30:33;;;;;;;7.40;4.18;;;12.10;99.90;;;;;;4992357;28;20033;-73
2022/09/24 04:32:59;;;;;;;6.47;4.15;;;12.10;99.90;;;;;;4994445;28;20470;-72
2022/09/24 04:35:28;;;;;;;6.13;4.20;;;12.10;99.90;;;;;;4994585;28;20125;-72
2022/09/24 04:37:54;;;;;;;9.07;4.90;;;12.20;99.90;;;;;;4994679;28;20037;-72
2022/09/24 04:40:20;;;;;;;5.93;4.20;;;12.10;99.90;;;;;;4994223;28;20030;-73
2022/09/24 04:42:47;;;;;;;11.82;4.47;;;12.10;99.90;;;;;;4995959;28;20030;-73
2022/09/24 04:45:16;;;;;;;6.95;4.20;;;12.10;99.90;;;;;;4994195;28;20030;-73
2022/09/24 04:47:42;;;;;;;6.03;4.43;;;12.10;99.90;;;;;;4994603;28;20030;-73
2022/09/24 04:50:10;;;;;;;7.13;4.20;;;12.10;99.90;;;;;;4993588;28;20396;-72
2022/09/24 04:52:36;;;;;;;6.72;4.50;;;12.10;99.90;;;;;;4994618;28;20435;-72
2022/09/24 04:55:02;;;;;;;6.70;4.05;;;12.10;99.90;;;;;;4994014;28;20030;-73
2022/09/24 04:57:33;;;;;;;8.23;4.75;;;12.20;99.90;;;;;;4994521;28;20030;-73
2022/09/24 04:59:59;;;;;;;9.15;4.75;;;12.20;99.90;;;;;;4993624;28;20049;-73
2022/09/24 05:02:25;;;;;;;6.57;4.10;;;12.20;99.90;;;;;;4994407;28;20031;-73
2022/09/24 05:04:50;;;;;;;4.95;3.92;;;12.30;99.90;;;;;;4994389;28;20379;-72
2022/09/24 05:07:16;;;;;;;7.07;4.22;;;12.30;99.90;;;;;;4993807;28;20026;-72
2022/09/24 05:09:42;;;;;;;11.23;4.38;;;12.30;99.90;;;;;;4994320;28;20085;-72
2022/09/24 05:12:07;;;;;;;8.30;4.43;;;12.30;99.90;;;;;;4993737;28;20429;-73
2022/09/24 05:14:33;;;;;;;9.85;3.80;;;12.20;99.90;;;;;;4995162;28;20077;-72
2022/09/24 05:16:58;;;;;;;7.57;4.47;;;12.20;99.90;;;;;;4993463;28;20450;-74
2022/09/24 05:19:24;;;;;;;5.70;4.00;;;12.20;99.90;;;;;;4995611;28;20070;-72
2022/09/24 05:21:49;;;;;;;9.35;4.50;;;12.20;99.90;;;;;;4995264;28;20109;-72
2022/09/24 05:24:15;;;;;;;5.82;4.53;;;12.20;99.90;;;;;;4994713;28;20037;-73
2022/09/24 05:29:25;;;;;;;6.32;4.10;;;12.10;99.90;;;;;;4995317;28;20033;-73
2022/09/24 05:31:51;;;;;;;8.27;4.32;;;12.10;99.90;;;;;;4993846;28;20030;-72
2022/09/24 05:34:17;;;;;;;8.00;4.93;;;12.10;99.90;;;;;;4993370;28;20073;-73
2022/09/24 05:36:43;;;;;;;8.32;4.40;;;12.10;99.90;;;;;;4993684;28;20456;-73
2022/09/24 05:39:10;;;;;;;11.15;4.47;;;12.10;99.90;;;;;;4994482;28;20503;-72
2022/09/24 05:41:37;;;;;;;8.40;4.53;;;12.20;99.90;;;;;;4993624;28;20042;-73
2022/09/24 05:44:03;;;;;;;4.93;3.95;;;12.20;99.90;;;;;;4992415;28;20080;-73
2022/09/24 05:46:29;;;;;;;5.85;4.30;;;12.20;99.90;;;;;;4993572;28;20463;-72
2022/09/24 05:48:55;;;;;;;8.50;4.65;;;12.30;99.90;;;;;;4992862;28;20057;-74
2022/09/24 05:51:21;;;;;;;8.65;4.18;;;12.30;99.90;;;;;;4992877;28;20038;-73
2022/09/24 05:53:46;;;;;;;7.15;4.30;;;12.30;99.90;;;;;;4994741;28;20030;-72
2022/09/24 05:56:12;;;;;;;7.68;4.53;;;12.40;99.90;;;;;;4992825;28;20030;-73
2022/09/24 05:58:37;;;;;;;6.75;4.47;;;12.30;99.90;;;;;;4994478;28;20027;-72
2022/09/24 06:01:03;;;;;;;6.65;3.95;;;12.30;99.90;;;;;;4993957;28;20069;-73
2022/09/24 06:03:30;;;;;;;7.55;4.30;;;12.30;99.90;;;;;;4993233;28;20026;-72
2022/09/24 06:05:58;;;;;;;9.35;4.40;;;12.30;99.90;;;;;;4993213;28;20057;-72
2022/09/24 06:08:24;;;;;;;8.55;4.50;;;12.40;99.90;;;;;;4992551;28;20555;-72
2022/09/24 06:10:49;;;;;;;7.68;4.53;;;12.30;99.90;;;;;;4992986;28;20179;-72
2022/09/24 06:13:17;;;;;;;7.57;3.83;;;12.40;99.90;;;;;;4992469;28;20034;-72
2022/09/24 06:15:43;;;;;;;8.13;5.10;;;12.40;99.90;;;;;;4992953;28;20477;-72
2022/09/24 06:18:10;;;;;;;6.15;4.10;;;12.40;99.90;;;;;;4992302;28;20472;-73
2022/09/24 06:20:36;;;;;;;6.15;4.20;;;12.50;99.90;;;;;;4992852;28;20101;-73
2022/09/24 06:23:02;;;;;;;8.07;4.18;;;12.50;99.90;;;;;;4994139;28;20133;-73
2022/09/24 06:25:28;;;;;;;8.35;4.15;;;12.40;99.90;;;;;;4993009;28;20026;-73
2022/09/24 06:27:59;;;;;;;7.40;4.40;;;12.50;99.90;;;;;;4992713;28;20035;-73
2022/09/24 06:30:31;;;;;;;6.13;3.73;;;12.50;99.90;;;;;;4993653;28;20477;-73
2022/09/24 06:33:04;;;;;;;6.05;4.15;;;12.60;99.90;;;;;;4992708;28;20092;-73
2022/09/24 06:35:33;;;;;;;4.82;3.47;;;12.60;99.90;;;;;;4992730;28;20030;-73
2022/09/24 06:37:59;;;;;;;11.45;4.53;;;12.60;99.90;;;;;;4992522;28;20034;-74
2022/09/24 06:40:25;;;;;;;7.20;4.20;;;12.70;99.90;;;;;;4993268;28;20080;-73
2022/09/24 06:42:51;;;;;;;6.88;4.10;;;12.70;99.90;;;;;;4992613;28;20023;-73
2022/09/24 06:45:18;;;;;;;6.95;4.20;;;12.70;99.90;;;;;;4993238;28;20027;-73
2022/09/24 06:47:44;;;;;;;11.68;4.30;;;12.70;99.90;;;;;;4992385;28;20038;-73
2022/09/24 06:50:10;;;;;;;9.52;4.45;;;12.70;99.90;;;;;;4991394;28;20491;-73
2022/09/24 06:52:35;;;;;;;8.10;4.60;;;12.70;99.90;;;;;;4993540;28;20041;-73
2022/09/24 06:55:01;;;;;;;9.18;4.72;;;12.80;99.90;;;;;;4991513;28;20451;-73
2022/09/24 06:57:26;;;;;;;5.80;3.85;;;12.80;99.90;;;;;;4991507;28;20075;-73
2022/09/24 06:59:52;;;;;;;12.15;4.47;;;12.80;99.90;;;;;;4992207;28;20053;-73
2022/09/24 07:02:18;;;;;;;15.82;4.70;;;12.80;99.90;;;;;;4991540;28;20102;-73
2022/09/24 07:04:43;;;;;;;8.63;4.55;;;12.90;99.90;;;;;;4993164;28;20026;-73
2022/09/24 07:09:53;;;;;;;8.25;5.20;;;13.00;99.90;;;;;;4993117;28;20053;-73
2022/09/24 07:12:18;;;;;;;9.27;4.90;;;13.10;99.90;;;;;;4992683;28;20026;-73
2022/09/24 07:14:44;;;;;;;10.45;4.72;;;13.10;99.90;;;;;;4992070;28;20072;-73
2022/09/24 07:17:10;;;;;;;8.95;4.80;;;13.20;99.90;;;;;;4992459;28;20038;-73
2022/09/24 07:19:37;;;;;;;7.00;4.28;;;13.20;99.90;;;;;;4991869;28;20035;-73
2022/09/24 07:22:03;;;;;;;8.07;4.53;;;13.20;99.90;;;;;;4993232;28;20018;-73
2022/09/24 07:24:28;;;;;;;6.47;4.57;;;13.30;99.90;;;;;;4991277;28;20133;-73
2022/09/24 07:26:54;;;;;;;7.32;4.10;;;13.30;99.90;;;;;;4993396;28;20438;-73
2022/09/24 07:29:19;;;;;;;9.65;4.50;;;13.40;99.90;;;;;;4991295;28;20117;-73
2022/09/24 07:31:45;;;;;;;6.25;4.10;;;13.50;99.90;;;;;;4993155;28;20452;-72
2022/09/24 07:34:11;;;;;;;8.13;4.50;;;13.60;99.90;;;;;;4991250;28;20037;-73
2022/09/24 07:36:36;;;;;;;8.38;4.95;;;13.60;99.90;;;;;;4991599;28;20038;-73
2022/09/24 07:39:02;;;;;;;10.02;4.80;;;13.50;99.90;;;;;;4992893;28;20062;-73
2022/09/24 07:41:29;;;;;;;6.25;4.60;;;13.60;99.90;;;;;;4992443;28;20026;-73
2022/09/24 07:43:55;;;;;;;6.28;4.55;;;13.60;99.90;;;;;;4991773;28;20026;-73
2022/09/24 07:46:20;;;;;;;7.50;4.68;;;13.70;99.90;;;;;;4992398;28;20105;-73
2022/09/24 07:48:49;;;;;;;7.05;4.80;;;13.70;99.90;;;;;;4992671;28;20530;-73
2022/09/24 07:51:15;;;;;;;6.32;4.75;;;13.60;99.90;;;;;;4992381;28;20472;-73
2022/09/24 07:53:40;;;;;;;9.55;5.03;;;13.60;99.90;;;;;;4991473;28;20030;-73
2022/09/24 07:56:06;;;;;;;9.05;4.70;;;13.60;99.90;;;;;;4991565;28;20037;-73
2022/09/24 07:58:32;;;;;;;10.55;4.90;;;13.60;99.90;;;;;;4991956;28;20037;-73
2022/09/24 08:00:59;;;;;;;5.97;4.50;;;13.60;99.90;;;;;;4991879;28;20065;-73
2022/09/24 08:03:25;;;;;;;8.70;4.63;;;13.60;99.90;;;;;;4992297;28;20027;-73
2022/09/24 08:05:55;;;;;;;8.80;4.63;;;13.70;99.90;;;;;;4976033;28;20072;-73
2022/09/24 08:08:20;;;;;;;7.28;4.53;;;13.80;99.90;;;;;;4994860;28;20031;-72
2022/09/24 08:10:46;;;;;;;6.15;4.97;;;13.80;99.90;;;;;;4996573;28;20034;-73
2022/09/24 08:13:12;;;;;;;8.88;4.78;;;13.90;99.90;;;;;;4994733;28;20452;-73
2022/09/24 08:15:38;;;;;;;8.02;5.20;;;14.00;99.90;;;;;;4995179;28;20030;-73
2022/09/24 08:18:04;;;;;;;9.70;5.28;;;14.10;99.90;;;;;;4962683;28;20084;-72
2022/09/24 08:20:34;;;;;;;10.05;5.60;;;14.10;99.90;;;;;;4994346;28;20037;-73
2022/09/24 08:23:06;;;;;;;9.45;5.20;;;14.10;99.90;;;;;;4995090;28;20456;-72
2022/09/24 08:25:32;;;;;;;7.63;4.70;;;14.10;99.90;;;;;;4994529;28;20029;-73
2022/09/24 08:28:05;;;;;;;7.50;5.10;;;14.20;99.90;;;;;;4995026;28;20034;-73
2022/09/24 08:30:31;;;;;;;9.10;5.13;;;14.30;99.90;;;;;;4994131;28;20026;-73
2022/09/24 08:32:57;;;;;;;8.30;5.13;;;14.30;99.90;;;;;;4994895;28;20026;-72
2022/09/24 08:35:23;;;;;;;8.18;5.50;;;14.40;99.90;;;;;;4994484;28;20023;-73
2022/09/24 08:37:48;;;;;;;7.90;4.90;;;14.50;99.90;;;;;;4994783;28;20522;-72
2022/09/24 08:40:21;;;;;;;8.00;5.03;;;14.60;99.90;;;;;;4995688;28;20113;-73
2022/09/24 08:43:20;;;;;;;9.35;5.10;;;14.60;99.90;;;;;;4994823;28;20549;-73
2022/09/24 08:48:41;;;;;;;8.45;4.93;;;14.70;99.90;;;;;;4996174;28;20057;-73
2022/09/24 08:51:12;;;;;;;8.27;5.00;;;14.80;99.90;;;;;;4994241;28;20034;-72
2022/09/24 08:54:01;;;;;;;10.10;5.60;;;14.80;99.90;;;;;;4994565;28;20038;-73
2022/09/24 08:56:32;;;;;;;10.38;4.93;;;14.80;99.90;;;;;;4993951;28;20447;-73
2022/09/24 08:59:02;;;;;;;8.57;5.07;;;14.80;99.90;;;;;;4994426;28;20081;-72
2022/09/24 09:01:56;;;;;;;9.80;5.35;;;14.70;99.90;;;;;;4995125;28;20026;-72
2022/09/24 09:04:29;;;;;;;10.60;5.32;;;14.80;99.90;;;;;;4977014;28;20030;-72
2022/09/24 09:07:20;;;;;;;7.65;4.97;;;14.80;99.90;;;;;;4995416;28;20068;-72
2022/09/24 09:09:54;;;;;;;9.13;5.18;;;14.80;99.90;;;;;;4995378;28;20110;-74
2022/09/24 09:12:26;;;;;;;10.10;5.60;;;14.90;99.90;;;;;;4977507;28;20415;-75
2022/09/24 09:15:05;;;;;;;7.47;4.78;;;14.80;99.90;;;;;;4994436;28;20057;-72
2022/09/24 09:18:09;;;;;;;10.75;5.35;;;14.90;99.90;;;;;;4993951;28;20053;-75
2022/09/24 09:20:41;;;;;;;10.93;5.50;;;14.90;99.90;;;;;;4993584;28;20053;-75
2022/09/24 09:23:15;;;;;;;7.55;5.38;;;14.90;99.90;;;;;;4995323;28;20526;-74
2022/09/24 09:25:54;;;;;;;11.50;4.38;;;14.90;99.90;;;;;;4995206;28;20069;-75
2022/09/24 09:28:28;;;;;;;8.15;4.80;;;15.00;99.90;;;;;;4993488;28;20121;-75
2022/09/24 09:31:05;;;;;;;7.72;4.82;;;15.10;99.90;;;;;;4993958;28;20036;-75
2022/09/24 09:33:46;;;;;;;7.15;4.47;;;15.30;99.90;;;;;;4994608;28;20033;-75
2022/09/24 09:36:24;;;;;;;16.00;7.28;;;15.30;99.90;;;;;;4977692;28;20023;-74
2022/09/24 09:39:04;;;;;;;23.88;10.35;;;15.30;99.90;;;;;;4994771;28;20038;-72
2022/09/24 09:41:48;;;;;;;31.98;13.38;;;15.40;99.90;;;;;;4993153;28;20065;-75
2022/09/24 09:44:26;;;;;;;20.95;9.95;;;15.50;99.90;;;;;;4994199;28;20026;-80
2022/09/24 09:47:17;;;;;;;24.08;11.00;;;15.50;99.90;;;;;;4994869;28;20118;-75
2022/09/24 09:49:46;;;;;;;15.40;7.47;;;15.60;99.90;;;;;;4976709;28;20053;-75
2022/09/24 09:52:20;;;;;;;15.13;6.20;;;15.60;99.90;;;;;;4993286;28;20494;-75
2022/09/24 09:54:46;;;;;;;14.18;6.38;;;15.60;99.90;;;;;;4993492;28;20383;-75
2022/09/24 09:57:20;;;;;;;10.02;5.50;;;15.60;99.90;;;;;;4993015;28;20069;-75
2022/09/24 09:59:48;;;;;;;14.93;6.50;;;15.50;99.90;;;;;;4993001;28;20101;-75
2022/09/24 10:02:23;;;;;;;12.77;5.63;;;15.50;99.90;;;;;;4992962;28;20034;-75
2022/09/24 10:04:53;;;;;;;9.68;5.18;;;15.50;99.90;;;;;;4993477;28;20035;-75
2022/09/24 10:07:19;;;;;;;9.90;4.75;;;15.50;99.90;;;;;;4976539;28;20030;-75
2022/09/24 10:09:45;;;;;;;8.05;4.95;;;15.50;99.90;;;;;;4994376;28;20156;-75
2022/09/24 10:12:23;;;;;;;13.85;5.32;;;15.50;99.90;;;;;;4993026;28;20092;-75
2022/09/24 10:15:00;;;;;;;18.83;6.95;;;15.50;99.90;;;;;;4992966;28;20026;-75
2022/09/24 10:17:30;;;;;;;9.95;5.20;;;15.60;99.90;;;;;;4993612;28;20080;-73
2022/09/24 10:19:58;;;;;;;12.18;5.35;;;15.70;99.90;;;;;;4993003;28;20034;-74
2022/09/24 10:22:27;;;;;;;15.48;5.90;;;15.90;99.90;;;;;;4992435;28;20375;-74
2022/09/24 10:24:55;;;;;;;9.48;5.13;;;16.10;99.90;;;;;;4994149;28;20027;-74
2022/09/24 10:27:31;;;;;;;8.80;4.78;;;16.20;99.90;;;;;;4992310;28;20033;-74
2022/09/24 10:32:42;;;;;;;8.55;4.97;;;16.30;99.90;;;;;;4993565;28;20061;-74
2022/09/24 10:35:26;;;;;;;7.82;4.80;;;16.30;99.90;;;;;;4993976;28;20461;-74
2022/09/24 10:37:57;;;;;;;8.38;4.00;;;16.20;99.90;;;;;;4993820;28;20035;-74
2022/09/24 10:40:27;;;;;;;9.20;5.32;;;16.20;99.90;;;;;;4992111;28;20117;-74
2022/09/24 10:43:01;;;;;;;7.78;4.63;;;16.10;99.90;;;;;;4992604;28;20026;-74
2022/09/24 10:46:31;;;;;;;8.13;4.88;;;16.10;99.90;;;;;;4993478;28;20164;-74
2022/09/24 10:49:13;;;;;;;9.80;4.57;;;16.10;99.90;;;;;;4949417;29;20101;-74
2022/09/24 10:51:45;;;;;;;;;;;16.20;99.90;;;;;;4952633;29;20063;-73
2022/09/24 10:54:16;;;;;;;;;;;16.20;99.90;;;;;;4953110;29;19914;-73
2022/09/24 10:56:53;;;;;;;9.30;4.50;;;16.30;99.90;;;;;;4951995;29;20030;-74
2022/09/24 10:59:39;;;;;;;7.07;4.13;;;16.20;99.90;;;;;;4952011;29;20539;-74
2022/09/24 11:02:34;;;;;;;6.43;4.93;;;16.20;99.90;;;;;;4952645;29;20401;-73
2022/09/24 11:05:11;;;;;;;6.10;4.57;;;16.20;99.90;;;;;;4952398;29;20031;-73
2022/09/24 11:07:55;;;;;;;7.28;4.47;;;16.20;99.90;;;;;;4935990;29;20042;-74
2022/09/24 11:10:34;;;;;;;10.93;4.72;;;16.10;99.90;;;;;;4951984;29;20503;-74
2022/09/24 11:13:06;;;;;;;9.80;4.40;;;16.10;99.90;;;;;;4952439;29;20493;-73
2022/09/24 11:15:54;;;;;;;7.03;4.35;;;16.10;99.90;;;;;;4951960;29;20051;-74
2022/09/24 11:18:32;;;;;;;9.02;4.32;;;16.20;99.90;;;;;;4956394;28;20079;-78
2022/09/24 11:21:22;;;;;;;8.85;4.40;;;16.30;99.90;;;;;;4992152;28;20105;-73
2022/09/24 11:24:06;;;;;;;8.40;4.55;;;16.40;99.90;;;;;;4992303;28;20030;-74
2022/09/24 11:26:50;;;;;;;8.20;4.28;;;16.50;99.90;;;;;;4991498;28;20026;-74
2022/09/24 11:29:48;;;;;;;7.10;4.40;;;16.60;99.90;;;;;;4992036;28;20499;-73
2022/09/24 11:32:30;;;;;;;5.25;3.90;;;16.80;99.90;;;;;;4992147;28;20118;-73
2022/09/24 11:35:17;;;;;;;7.03;4.55;;;16.90;99.90;;;;;;4993396;28;20166;-73
2022/09/24 11:37:59;;;;;;;8.52;4.85;;;17.00;99.90;;;;;;4974749;28;20027;-74
2022/09/24 11:40:39;;;;;;;6.97;4.30;;;17.00;99.90;;;;;;4991425;28;20037;-74
2022/09/24 11:43:32;;;;;;;9.77;5.07;;;17.00;99.90;;;;;;4997082;28;20027;-73
2022/09/24 11:46:16;;;;;;;7.45;4.57;;;17.10;99.90;;;;;;4979893;28;20029;-73
2022/09/24 11:49:06;;;;;;;10.35;4.63;;;17.20;99.90;;;;;;4978802;28;20054;-74
2022/09/24 11:52:02;;;;;;;8.40;4.88;;;17.30;99.90;;;;;;4978906;28;20050;-73
2022/09/24 11:54:47;;;;;;;5.70;4.25;;;17.40;99.90;;;;;;4995226;28;20030;-73
2022/09/24 11:57:20;;;;;;;6.13;4.57;;;17.50;99.90;;;;;;4995728;28;20387;-73
2022/09/24 12:00:00;;;;;;;8.32;4.75;;;17.40;99.90;;;;;;4995135;28;20491;-74
2022/09/24 12:02:31;;;;;;;7.50;4.72;;;17.40;99.90;;;;;;4996349;28;20030;-74
2022/09/24 12:05:08;;;;;;;7.05;4.38;;;17.40;99.90;;;;;;4979320;28;20491;-73
2022/09/24 12:07:42;;;;;;;5.40;3.55;;;17.40;99.90;;;;;;4995071;28;20035;-73
2022/09/24 12:10:42;;;;;;;7.30;4.25;;;17.60;99.90;;;;;;4995530;28;20023;-73
2022/09/24 12:13:45;;;;;;;6.93;4.72;;;17.70;99.90;;;;;;4995458;28;20029;-74
2022/09/24 12:16:15;;;;;;;8.50;4.30;;;17.90;99.90;;;;;;4979305;28;20023;-73
2022/09/24 12:18:54;;;;;;;8.05;4.72;;;18.20;99.90;;;;;;4994774;28;20516;-74
2022/09/24 12:21:42;;;;;;;7.82;4.47;;;18.30;99.90;;;;;;4995293;28;20058;-74
2022/09/24 12:24:35;;;;;;;10.10;4.43;;;18.40;99.90;;;;;;4978841;28;20387;-74
2022/09/24 12:27:11;;;;;;;5.28;3.90;;;18.50;99.90;;;;;;4991806;28;20068;-73
2022/09/24 12:33:16;;;;;;;5.75;4.25;;;18.50;99.90;;;;;;4995528;28;20454;-74
2022/09/24 12:35:54;;;;;;;5.78;4.00;;;18.70;99.90;;;;;;4945900;28;20069;-73
2022/09/24 12:38:28;;;;;;;6.53;4.47;;;18.90;99.90;;;;;;4996180;28;20101;-74
2022/09/24 12:41:06;;;;;;;6.40;4.53;;;19.00;99.90;;;;;;4996249;28;20030;-73
2022/09/24 12:43:38;;;;;;;5.68;3.70;;;19.10;99.90;;;;;;4978070;28;20027;-74
2022/09/24 12:46:07;;;;;;;7.10;4.18;;;19.00;99.90;;;;;;4978569;28;20463;-74
2022/09/24 12:48:37;;;;;;;6.28;4.05;;;19.00;99.90;;;;;;4993528;28;20610;-73
2022/09/24 12:51:09;;;;;;;5.78;3.83;;;18.90;99.90;;;;;;4994420;28;20387;-74
2022/09/24 12:53:37;;;;;;;5.78;3.58;;;18.90;99.90;;;;;;4976647;28;20037;-73
2022/09/24 12:56:04;;;;;;;5.38;3.67;;;19.00;99.90;;;;;;4994048;28;20029;-74
2022/09/24 12:58:41;;;;;;;6.10;4.00;;;19.00;99.90;;;;;;4994779;28;20479;-74
2022/09/24 13:01:24;;;;;;;4.50;3.67;;;19.10;99.90;;;;;;4994534;28;20163;-73
2022/09/24 13:04:13;;;;;;;4.78;3.42;;;19.10;99.90;;;;;;4995065;28;20033;-74
2022/09/24 13:06:40;;;;;;;4.18;2.65;;;19.30;99.90;;;;;;4977608;28;20049;-74
2022/09/24 13:09:33;;;;;;;4.50;2.88;;;19.40;99.90;;;;;;4994124;28;20027;-73
2022/09/24 13:12:02;;;;;;;6.20;3.30;;;19.80;99.90;;;;;;4995442;28;20026;-74
2022/09/24 13:14:31;;;;;;;4.80;2.83;;;20.70;99.90;;;;;;4994773;28;20034;-74
2022/09/24 13:16:57;;;;;;;5.03;2.78;;;21.00;99.90;;;;;;4993597;28;20093;-74
2022/09/24 13:19:43;;;;;;;3.05;2.28;;;21.10;99.90;;;;;;4993892;28;20034;-74
2022/09/24 13:22:29;;;;;;;2.70;2.03;;;21.20;99.90;;;;;;4995152;28;20023;-74
2022/09/24 13:25:24;;;;;;;2.50;2.30;;;22.00;99.90;;;;;;4995211;28;20030;-74
2022/09/24 13:28:03;;;;;;;4.25;2.33;;;23.30;99.90;;;;;;4968585;28;20077;-74